createdAt,value
2023-04-03T00:01:27.177Z,100267.69
2023-04-03T00:04:29.895Z,100257.25
2023-04-03T00:07:32.516Z,100265.03
2023-04-03T00:10:35.730Z,100264.28
2023-04-03T00:13:39.741Z,100264.13
2023-04-03T00:16:42.227Z,100254.88
2023-04-03T00:19:44.800Z,100252.81
2023-04-03T00:22:47.345Z,100267.31
2023-04-03T00:25:49.873Z,100261.03
2023-04-03T00:28:59.830Z,100261.59
2023-04-03T00:32:03.588Z,100246.34
2023-04-03T00:35:09.653Z,100259.94
2023-04-03T00:38:12.256Z,100263.78
2023-04-03T00:41:14.971Z,100257.44
2023-04-03T00:44:46.716Z,100263.41
2023-04-03T00:47:49.585Z,100276.31
2023-04-03T00:50:53.381Z,100261.91
2023-04-03T00:53:59.915Z,100266.59
2023-04-03T00:57:05.689Z,100264.78
2023-04-03T01:00:14.769Z,100260.16
2023-04-03T01:03:20.050Z,100271.06
2023-04-03T01:06:28.396Z,100295.16
2023-04-03T01:09:36.112Z,100256.00
2023-04-03T01:12:40.801Z,100274.06
2023-04-03T01:15:49.480Z,100274.72
2023-04-03T01:18:52.121Z,100274.25
2023-04-03T01:22:06.003Z,100268.41
2023-04-03T01:25:09.378Z,100272.19
2023-04-03T01:28:18.993Z,100287.88
2023-04-03T01:32:01.184Z,100266.00
2023-04-03T01:35:04.285Z,100277.69
2023-04-03T01:38:07.830Z,100260.63
2023-04-03T01:41:12.895Z,100278.69
2023-04-03T01:44:16.761Z,100273.81
2023-04-03T01:47:21.595Z,100273.69
2023-04-03T01:50:24.391Z,100275.31
2023-04-03T01:53:30.908Z,100274.50
2023-04-03T01:56:33.700Z,100299.44
2023-04-03T01:59:36.402Z,100275.81
2023-04-03T02:02:39.377Z,100301.06
2023-04-03T02:05:42.114Z,100276.88
2023-04-03T02:08:44.761Z,100300.16
2023-04-03T02:11:47.391Z,100280.25
2023-04-03T02:14:50.119Z,100291.31
2023-04-03T02:17:53.312Z,100288.00
2023-04-03T02:20:56.642Z,100297.91
2023-04-03T02:23:59.148Z,100293.50
2023-04-03T02:27:01.815Z,100308.72
2023-04-03T02:30:05.316Z,100289.88
2023-04-03T02:33:08.020Z,100297.78
2023-04-03T02:36:11.158Z,100292.00
2023-04-03T02:39:17.078Z,100288.16
2023-04-03T02:42:21.016Z,100313.34
2023-04-03T02:45:23.571Z,100298.34
2023-04-03T02:48:26.481Z,100315.28
2023-04-03T02:51:30.540Z,100317.66
2023-04-03T02:54:33.255Z,100324.28
2023-04-03T02:57:39.912Z,100311.91
2023-04-03T03:00:43.083Z,100319.09
2023-04-03T03:03:45.881Z,100327.72
2023-04-03T03:06:48.498Z,100320.38
2023-04-03T03:09:51.244Z,100317.84
2023-04-03T03:12:53.766Z,100315.22
2023-04-03T03:15:56.929Z,100309.78
2023-04-03T03:19:00.754Z,100316.06
2023-04-03T03:22:03.522Z,100324.28
2023-04-03T03:25:07.156Z,100318.03
2023-04-03T03:28:09.853Z,100320.13
2023-04-03T03:31:16.485Z,100333.84
2023-04-03T03:34:19.221Z,100306.78
2023-04-03T03:37:21.829Z,100316.34
2023-04-03T03:40:24.513Z,100315.50
2023-04-03T03:43:27.242Z,100318.22
2023-04-03T03:46:30.438Z,100325.81
2023-04-03T03:49:33.155Z,100303.88
2023-04-03T03:52:37.168Z,100320.22
2023-04-03T03:55:42.271Z,100310.28
2023-04-03T03:58:50.248Z,100322.06
2023-04-03T04:01:53.511Z,100330.63
2023-04-03T04:04:56.114Z,100314.28
2023-04-03T04:07:58.883Z,100316.53
2023-04-03T04:11:02.259Z,100334.41
2023-04-03T04:14:05.400Z,100330.09
2023-04-03T04:17:10.523Z,100339.41
2023-04-03T04:20:13.534Z,100322.63
2023-04-03T04:23:20.608Z,100331.63
2023-04-03T04:26:27.656Z,100326.25
2023-04-03T04:29:30.492Z,100338.72
2023-04-03T04:32:33.182Z,100321.66
2023-04-03T04:35:39.747Z,100337.88
2023-04-03T04:38:43.196Z,100315.81
2023-04-03T04:41:45.818Z,100352.53
2023-04-03T04:44:48.514Z,100350.50
2023-04-03T04:47:53.545Z,100345.06
2023-04-03T04:50:56.743Z,100347.97
2023-04-03T04:54:02.975Z,100345.50
2023-04-03T04:57:08.761Z,100348.94
2023-04-03T05:00:14.758Z,100357.78
2023-04-03T05:03:20.322Z,100335.19
2023-04-03T05:06:25.685Z,100352.41
2023-04-03T05:09:29.622Z,100358.84
2023-04-03T05:12:33.185Z,100371.25
2023-04-03T05:15:43.006Z,100360.56
2023-04-03T05:18:45.758Z,100368.16
2023-04-03T05:21:54.052Z,100351.69
2023-04-03T05:24:57.081Z,100356.19
2023-04-03T05:28:02.892Z,100359.81
2023-04-03T05:31:05.858Z,100359.53
2023-04-03T05:34:12.174Z,100374.31
2023-04-03T05:37:16.455Z,100361.75
2023-04-03T05:40:20.467Z,100368.00
2023-04-03T05:43:26.876Z,100362.41
2023-04-03T05:46:33.271Z,100368.81
2023-04-03T05:49:43.274Z,100372.84
2023-04-03T05:52:50.981Z,100375.56
2023-04-03T05:55:55.049Z,100377.75
2023-04-03T05:58:58.208Z,100382.94
2023-04-03T06:02:02.601Z,100370.59
2023-04-03T06:05:06.629Z,100381.34
2023-04-03T06:08:11.119Z,100387.78
2023-04-03T06:11:13.965Z,100396.03
2023-04-03T06:14:16.691Z,100389.34
2023-04-03T06:17:19.783Z,100406.75
2023-04-03T06:20:23.345Z,100378.00
2023-04-03T06:23:26.536Z,100419.59
2023-04-03T06:26:29.954Z,100400.69
2023-04-03T06:29:32.696Z,100393.06
2023-04-03T06:32:38.956Z,100415.19
2023-04-03T06:35:42.078Z,100393.75
2023-04-03T06:38:44.698Z,100398.34
2023-04-03T06:41:47.281Z,100384.00
2023-04-03T06:44:49.976Z,100381.44
2023-04-03T06:47:52.779Z,100382.25
2023-04-03T06:50:55.411Z,100390.13
2023-04-03T06:53:59.972Z,100405.00
2023-04-03T06:57:07.595Z,100392.78
2023-04-03T07:00:12.249Z,100391.53
2023-04-03T07:03:14.793Z,100391.59
2023-04-03T07:06:18.472Z,100397.72
2023-04-03T07:09:21.943Z,100420.09
2023-04-03T07:12:24.569Z,100411.06
2023-04-03T07:15:27.215Z,100406.78
2023-04-03T07:18:29.846Z,100404.81
2023-04-03T07:21:32.551Z,100412.75
2023-04-03T07:24:35.227Z,100402.75
2023-04-03T07:27:38.028Z,100414.72
2023-04-03T07:30:50.325Z,100479.94
2023-04-03T07:33:52.979Z,100418.13
2023-04-03T07:36:55.986Z,100419.91
2023-04-03T07:40:00.196Z,100411.25
2023-04-03T07:43:03.689Z,100412.31
2023-04-03T07:46:06.728Z,100431.97
2023-04-03T07:49:09.570Z,100427.03
2023-04-03T07:52:14.251Z,100438.19
2023-04-03T07:55:16.967Z,100435.84
2023-04-03T07:58:20.208Z,100424.88
2023-04-03T08:01:23.623Z,100432.44
2023-04-03T08:04:27.533Z,100439.34
2023-04-03T08:07:56.765Z,100433.63
2023-04-03T08:11:01.288Z,100448.53
2023-04-03T08:14:03.985Z,100445.31
2023-04-03T08:17:10.851Z,100441.47
2023-04-03T08:20:13.762Z,100416.56
2023-04-03T08:23:19.307Z,100476.34
2023-04-03T08:26:23.147Z,100448.66
2023-04-03T08:29:28.686Z,100462.75
2023-04-03T08:32:31.582Z,100458.59
2023-04-03T08:35:35.316Z,100451.16
2023-04-03T08:38:39.758Z,100420.28
2023-04-03T08:41:50.610Z,100374.34
2023-04-03T08:45:04.500Z,100415.81
2023-04-03T08:48:58.872Z,100457.31
2023-04-03T08:52:06.862Z,100458.31
2023-04-03T08:55:27.282Z,100456.16
2023-04-03T08:58:31.140Z,100404.69
2023-04-03T09:01:39.523Z,100438.59
2023-04-03T09:04:42.383Z,100422.13
2023-04-03T09:07:52.209Z,100386.84
2023-04-03T09:11:07.604Z,100453.50
2023-04-03T09:14:39.942Z,100434.72
2023-04-03T09:17:45.717Z,100457.03
2023-04-03T09:21:26.420Z,100445.81
2023-04-03T09:24:29.671Z,100465.75
2023-04-03T09:27:32.545Z,100451.91
2023-04-03T09:30:40.209Z,100431.75
2023-04-03T09:33:45.510Z,100445.81
2023-04-03T09:36:52.518Z,100481.91
2023-04-03T09:39:56.236Z,100413.41
2023-04-03T09:43:20.999Z,100474.38
2023-04-03T09:46:31.522Z,100479.88
2023-04-03T09:49:34.468Z,100473.91
2023-04-03T09:52:38.743Z,100449.47
2023-04-03T09:55:48.413Z,100451.94
2023-04-03T09:58:53.550Z,100456.00
2023-04-03T10:02:20.855Z,100464.19
2023-04-03T10:05:28.020Z,100410.16
2023-04-03T10:08:35.732Z,100397.94
2023-04-03T10:11:38.657Z,100416.88
2023-04-03T10:14:54.388Z,100368.34
2023-04-03T10:18:04.372Z,100446.03
2023-04-03T10:21:41.231Z,100450.09
2023-04-03T10:24:57.188Z,100446.81
2023-04-03T10:28:41.607Z,100436.84
2023-04-03T10:31:47.902Z,100460.09
2023-04-03T10:35:02.581Z,100402.00
2023-04-03T10:38:17.853Z,100441.91
2023-04-03T10:41:33.346Z,100421.13
2023-04-03T10:44:44.733Z,100432.50
2023-04-03T10:47:59.384Z,100412.63
2023-04-03T10:51:05.288Z,100432.03
2023-04-03T10:54:18.814Z,100421.69
2023-04-03T10:57:24.044Z,100402.22
2023-04-03T11:00:34.970Z,100395.31
2023-04-03T11:03:43.525Z,100417.19
2023-04-03T11:06:52.133Z,100403.88
2023-04-03T11:09:58.857Z,100409.91
2023-04-03T11:13:13.277Z,100413.91
2023-04-03T11:16:24.180Z,100400.13
2023-04-03T11:19:41.406Z,100411.56
2023-04-03T11:22:47.178Z,100416.28
2023-04-03T11:25:53.437Z,100405.22
2023-04-03T11:29:02.964Z,100407.22
2023-04-03T11:32:39.663Z,100407.09
2023-04-03T11:35:48.782Z,100386.56
2023-04-03T11:38:59.105Z,100393.22
2023-04-03T11:42:35.166Z,100351.94
2023-04-03T11:45:50.758Z,100404.22
2023-04-03T11:48:57.908Z,100397.81
2023-04-03T11:52:00.745Z,100409.91
2023-04-03T11:55:03.625Z,100367.91
2023-04-03T11:58:17.399Z,100327.00
2023-04-03T12:02:02.203Z,100403.38
2023-04-03T12:05:31.096Z,100378.88
2023-04-03T12:08:33.597Z,100382.78
2023-04-03T12:11:37.117Z,100372.81
2023-04-03T12:14:41.576Z,100392.16
2023-04-03T12:17:44.233Z,100395.94
2023-04-03T12:20:54.614Z,100352.72
2023-04-03T12:24:09.935Z,100377.94
2023-04-03T12:27:24.801Z,100374.47
2023-04-03T12:30:32.548Z,100368.16
2023-04-03T12:34:09.144Z,100351.88
2023-04-03T12:37:49.791Z,100369.56
2023-04-03T12:41:15.501Z,100365.34
2023-04-03T12:44:18.362Z,100360.28
2023-04-03T12:47:34.331Z,100327.59
2023-04-03T12:50:37.626Z,100307.66
2023-04-03T12:53:40.663Z,100356.47
2023-04-03T12:56:43.586Z,100343.78
2023-04-03T12:59:52.168Z,100325.75
2023-04-03T13:03:06.105Z,100342.44
2023-04-03T13:06:23.675Z,100356.22
2023-04-03T13:09:29.008Z,100349.50
2023-04-03T13:12:32.618Z,100330.75
2023-04-03T13:15:47.016Z,100328.53
2023-04-03T13:18:54.686Z,100325.16
2023-04-03T13:22:32.684Z,100351.25
2023-04-03T13:25:37.582Z,100333.53
2023-04-03T13:28:41.806Z,100329.34
2023-04-03T13:31:47.624Z,100326.31
2023-04-03T13:35:00.293Z,100330.44
2023-04-03T13:38:27.737Z,100334.47
2023-04-03T13:41:33.947Z,100343.19
2023-04-03T13:44:40.685Z,100339.25
2023-04-03T13:47:45.503Z,100333.66
2023-04-03T13:51:07.839Z,100299.50
2023-04-03T13:54:30.057Z,100310.16
2023-04-03T13:57:32.900Z,100317.72
2023-04-03T14:00:38.877Z,100327.94
2023-04-03T14:03:43.474Z,100245.53
2023-04-03T14:06:50.403Z,100310.59
2023-04-03T14:09:53.857Z,100301.63
2023-04-03T14:12:56.795Z,100286.78
2023-04-03T14:16:09.034Z,100327.00
2023-04-03T14:19:24.518Z,100302.00
2023-04-03T14:22:30.751Z,100326.72
2023-04-03T14:25:33.973Z,100343.38
2023-04-03T14:28:36.772Z,100326.59
2023-04-03T14:31:40.600Z,100320.38
2023-04-03T14:34:44.618Z,100339.47
2023-04-03T14:37:48.419Z,100326.94
2023-04-03T14:40:52.365Z,100358.09
2023-04-03T14:43:55.491Z,100357.25
2023-04-03T14:46:58.316Z,100347.41
2023-04-03T14:50:02.312Z,100357.47
2023-04-03T14:53:05.910Z,100332.06
2023-04-03T14:56:23.216Z,100343.91
2023-04-03T14:59:26.374Z,100335.81
2023-04-03T15:02:33.349Z,100285.59
2023-04-03T15:05:37.433Z,100297.75
2023-04-03T15:08:42.164Z,100337.06
2023-04-03T15:11:44.720Z,100331.75
2023-04-03T15:14:53.403Z,100351.03
2023-04-03T15:18:02.946Z,100339.66
2023-04-03T15:21:06.570Z,100342.38
2023-04-03T15:24:10.398Z,100330.44
2023-04-03T15:27:14.144Z,100292.81
2023-04-03T15:30:19.648Z,100318.34
2023-04-03T15:33:25.334Z,100345.38
2023-04-03T15:36:36.068Z,100328.41
2023-04-03T15:39:38.653Z,100284.69
2023-04-03T15:42:41.812Z,100264.09
2023-04-03T15:45:45.371Z,100342.06
2023-04-03T15:48:47.963Z,100290.19
2023-04-03T15:51:50.730Z,100309.41
2023-04-03T15:54:53.231Z,100254.53
2023-04-03T15:57:55.876Z,100308.41
2023-04-03T16:00:58.692Z,100333.13
2023-04-03T16:04:01.768Z,100320.50
2023-04-03T16:07:05.390Z,100349.66
2023-04-03T16:10:11.714Z,100295.84
2023-04-03T16:13:16.011Z,100351.47
2023-04-03T16:16:19.004Z,100322.88
2023-04-03T16:19:25.223Z,100316.13
2023-04-03T16:22:30.000Z,100359.88
2023-04-03T16:25:32.606Z,100352.91
2023-04-03T16:28:35.277Z,100345.34
2023-04-03T16:31:37.920Z,100366.69
2023-04-03T16:34:41.594Z,100350.84
2023-04-03T16:37:45.008Z,100363.81
2023-04-03T16:40:47.596Z,100359.72
2023-04-03T16:43:51.639Z,100362.13
2023-04-03T16:46:54.407Z,100362.50
2023-04-03T16:50:00.054Z,100370.97
2023-04-03T16:53:06.147Z,100322.56
2023-04-03T16:56:08.810Z,100348.81
2023-04-03T16:59:11.462Z,100373.63
2023-04-03T17:02:14.143Z,100381.16
2023-04-03T17:05:16.927Z,100375.06
2023-04-03T17:08:19.699Z,100381.69
2023-04-03T17:11:22.654Z,100392.66
2023-04-03T17:14:25.415Z,100361.88
2023-04-03T17:17:28.331Z,100354.00
2023-04-03T17:20:31.172Z,100401.75
2023-04-03T17:23:35.876Z,100404.97
2023-04-03T17:26:38.585Z,100385.22
2023-04-03T17:29:41.171Z,100391.56
2023-04-03T17:32:46.833Z,100420.34
2023-04-03T17:35:49.510Z,100394.97
2023-04-03T17:38:55.161Z,100430.41
2023-04-03T17:41:57.826Z,100446.44
2023-04-03T17:45:03.407Z,100407.53
2023-04-03T17:48:06.566Z,100442.25
2023-04-03T17:51:12.468Z,100465.44
2023-04-03T17:54:15.196Z,100470.34
2023-04-03T17:57:18.100Z,100478.19
2023-04-03T18:00:20.910Z,100384.09
2023-04-03T18:03:26.293Z,100454.38
2023-04-03T18:06:51.964Z,100449.19
2023-04-03T18:09:55.338Z,100460.25
2023-04-03T18:12:58.293Z,100446.69
2023-04-03T18:16:01.105Z,100461.00
2023-04-03T18:22:14.877Z,100463.22
2023-04-03T18:25:23.109Z,100461.16
2023-04-03T18:28:27.269Z,100491.00
2023-04-03T18:31:36.078Z,100462.69
2023-04-03T18:34:38.992Z,100502.84
2023-04-03T18:37:45.258Z,100410.53
2023-04-03T18:40:57.178Z,100423.53
2023-04-03T18:44:02.049Z,100467.41
2023-04-03T18:47:05.418Z,100451.25
2023-04-03T18:50:09.133Z,100456.69
2023-04-03T18:53:14.475Z,100472.91
2023-04-03T18:56:17.315Z,100443.78
2023-04-03T18:59:20.076Z,100377.50
2023-04-03T19:02:27.074Z,100455.47
2023-04-03T19:05:30.034Z,100441.63
2023-04-03T19:08:38.338Z,100429.00
2023-04-03T19:11:41.492Z,100442.63
2023-04-03T19:14:46.558Z,100440.75
2023-04-03T19:17:49.336Z,100430.50
2023-04-03T19:20:52.140Z,100447.00
2023-04-03T19:23:59.306Z,100466.09
2023-04-03T19:27:05.111Z,100460.75
2023-04-03T19:30:10.116Z,100460.47
2023-04-03T19:33:12.910Z,100455.22
2023-04-03T19:36:16.417Z,100458.56
2023-04-03T19:39:19.237Z,100449.72
2023-04-03T19:42:22.354Z,100457.63
2023-04-03T19:45:26.468Z,100464.22
2023-04-03T19:48:29.176Z,100469.72
2023-04-03T19:51:32.076Z,100469.47
2023-04-03T19:54:35.414Z,100448.75
2023-04-03T19:57:38.177Z,100446.22
2023-04-03T20:00:41.117Z,100469.38
2023-04-03T20:03:45.541Z,100469.34
2023-04-03T20:06:55.594Z,100475.06
2023-04-03T20:10:02.354Z,100503.69
2023-04-03T20:13:09.723Z,100491.25
2023-04-03T20:16:14.496Z,100485.16
2023-04-03T20:19:28.674Z,100488.66
2023-04-03T20:22:32.442Z,100512.22
2023-04-03T20:25:47.998Z,100484.19
2023-04-03T20:28:58.543Z,100509.13
2023-04-03T20:32:01.430Z,100493.63
2023-04-03T20:35:04.972Z,100503.56
2023-04-03T20:38:07.737Z,100510.97
2023-04-03T20:41:10.536Z,100482.91
2023-04-03T20:44:15.006Z,100503.16
2023-04-03T20:47:17.751Z,100506.94
2023-04-03T20:50:22.686Z,100487.47
2023-04-03T20:53:25.292Z,100498.97
2023-04-03T20:56:35.692Z,100503.69
2023-04-03T20:59:42.296Z,100519.19
2023-04-03T21:02:46.145Z,100508.00
2023-04-03T21:05:59.850Z,100504.22
2023-04-03T21:09:42.376Z,100510.66
2023-04-03T21:13:23.196Z,100505.91
2023-04-03T21:16:27.320Z,100522.41
2023-04-03T21:19:35.508Z,100492.63
2023-04-03T21:22:43.282Z,100498.25
2023-04-03T21:25:48.916Z,100457.69
2023-04-03T21:28:55.949Z,100438.91
2023-04-03T21:31:59.851Z,100493.38
2023-04-03T21:35:05.089Z,100471.00
2023-04-03T21:38:07.868Z,100502.34
2023-04-03T21:41:10.418Z,100488.34
2023-04-03T21:44:13.135Z,100499.41
2023-04-03T21:47:16.235Z,100434.34
2023-04-03T21:50:19.374Z,100460.56
2023-04-03T21:53:22.700Z,100467.31
2023-04-03T21:56:25.411Z,100466.34
2023-04-03T21:59:28.041Z,100486.03
2023-04-03T22:02:32.488Z,100409.38
2023-04-03T22:05:36.134Z,100487.66
2023-04-03T22:08:39.424Z,100476.53
2023-04-03T22:11:44.667Z,100475.88
2023-04-03T22:14:47.431Z,100482.44
2023-04-03T22:17:49.957Z,100481.50
2023-04-03T22:20:52.768Z,100465.97
2023-04-03T22:23:56.202Z,100420.94
2023-04-03T22:26:58.729Z,100496.47
2023-04-03T22:30:01.292Z,100506.16
2023-04-03T22:33:04.068Z,100503.53
2023-04-03T22:36:09.267Z,100497.66
2023-04-03T22:39:13.527Z,100483.59
2023-04-03T22:42:16.088Z,100481.13
2023-04-03T22:45:18.687Z,100484.09
2023-04-03T22:48:21.862Z,100498.84
2023-04-03T22:51:24.419Z,100494.41
2023-04-03T22:54:27.010Z,100425.63
2023-04-03T22:57:29.563Z,100483.13
2023-04-03T23:00:32.442Z,100509.88
2023-04-03T23:03:39.623Z,100489.91
2023-04-03T23:06:42.833Z,100492.38
2023-04-03T23:09:45.428Z,100487.47
2023-04-03T23:12:51.040Z,100509.75
2023-04-03T23:16:03.296Z,100513.25
2023-04-03T23:19:07.396Z,100471.00
2023-04-03T23:22:15.039Z,100527.22
2023-04-03T23:25:17.583Z,100523.97
2023-04-03T23:28:20.216Z,100531.53
2023-04-03T23:31:23.540Z,100501.69
2023-04-03T23:34:26.187Z,100525.78
2023-04-03T23:37:28.770Z,100519.03
2023-04-03T23:40:31.480Z,100482.50
2023-04-03T23:43:34.927Z,100522.66
2023-04-03T23:46:37.477Z,100487.75
2023-04-03T23:49:40.086Z,100495.28
2023-04-03T23:52:42.659Z,100502.66
2023-04-03T23:55:45.341Z,100509.84
2023-04-03T23:58:48.066Z,100494.06
